sensor_id;sensor_type;location;lat;lon;timestamp;pressure;altitude;pressure_sealevel;temperature
65290;BMP180;51893;59.754;10.110;2023-03-03T00:01:32;102399.40;;;-1.30
65290;BMP180;51893;59.754;10.110;2023-03-03T00:04:00;102391.60;;;-1.30
65290;BMP180;51893;59.754;10.110;2023-03-03T00:06:28;102393.00;;;-1.30
65290;BMP180;51893;59.754;10.110;2023-03-03T00:08:57;102391.20;;;-1.30
65290;BMP180;51893;59.754;10.110;2023-03-03T00:11:24;102384.40;;;-1.30
65290;BMP180;51893;59.754;10.110;2023-03-03T00:13:55;102375.00;;;-1.30
65290;BMP180;51893;59.754;10.110;2023-03-03T00:16:29;102375.80;;;-1.30
65290;BMP180;51893;59.754;10.110;2023-03-03T00:18:58;102381.80;;;-1.40
65290;BMP180;51893;59.754;10.110;2023-03-03T00:21:40;102388.40;;;-1.40
65290;BMP180;51893;59.754;10.110;2023-03-03T00:24:34;102384.40;;;-1.34
65290;BMP180;51893;59.754;10.110;2023-03-03T00:27:22;102384.60;;;-1.30
65290;BMP180;51893;59.754;10.110;2023-03-03T00:29:56;102384.40;;;-1.30
65290;BMP180;51893;59.754;10.110;2023-03-03T00:32:40;102382.40;;;-1.40
65290;BMP180;51893;59.754;10.110;2023-03-03T00:35:27;102384.80;;;-1.40
65290;BMP180;51893;59.754;10.110;2023-03-03T00:37:58;102377.40;;;-1.40
65290;BMP180;51893;59.754;10.110;2023-03-03T00:40:36;102392.80;;;-1.30
65290;BMP180;51893;59.754;10.110;2023-03-03T00:43:27;102395.20;;;-1.30
65290;BMP180;51893;59.754;10.110;2023-03-03T00:45:57;102394.60;;;-1.30
65290;BMP180;51893;59.754;10.110;2023-03-03T00:48:27;102396.00;;;-1.40
65290;BMP180;51893;59.754;10.110;2023-03-03T00:50:57;102409.40;;;-1.40
65290;BMP180;51893;59.754;10.110;2023-03-03T00:53:28;102409.80;;;-1.40
65290;BMP180;51893;59.754;10.110;2023-03-03T00:55:57;102403.20;;;-1.40
65290;BMP180;51893;59.754;10.110;2023-03-03T00:58:25;102389.00;;;-1.38
65290;BMP180;51893;59.754;10.110;2023-03-03T01:00:54;102398.80;;;-1.30
65290;BMP180;51893;59.754;10.110;2023-03-03T01:03:24;102402.40;;;-1.30
65290;BMP180;51893;59.754;10.110;2023-03-03T01:05:52;102402.80;;;-1.28
65290;BMP180;51893;59.754;10.110;2023-03-03T01:08:21;102406.40;;;-1.20
65290;BMP180;51893;59.754;10.110;2023-03-03T01:10:53;102409.00;;;-1.20
65290;BMP180;51893;59.754;10.110;2023-03-03T01:13:25;102404.60;;;-1.20
65290;BMP180;51893;59.754;10.110;2023-03-03T01:15:53;102406.40;;;-1.10
65290;BMP180;51893;59.754;10.110;2023-03-03T01:18:21;102397.40;;;-1.10
65290;BMP180;51893;59.754;10.110;2023-03-03T01:20:50;102391.80;;;-1.10
65290;BMP180;51893;59.754;10.110;2023-03-03T01:23:18;102389.40;;;-1.10
65290;BMP180;51893;59.754;10.110;2023-03-03T01:25:47;102386.00;;;-1.10
65290;BMP180;51893;59.754;10.110;2023-03-03T01:28:15;102385.00;;;-1.06
65290;BMP180;51893;59.754;10.110;2023-03-03T01:30:44;102377.80;;;-1.02
65290;BMP180;51893;59.754;10.110;2023-03-03T01:33:12;102384.20;;;-1.10
65290;BMP180;51893;59.754;10.110;2023-03-03T01:35:45;102389.40;;;-1.10
65290;BMP180;51893;59.754;10.110;2023-03-03T01:38:14;102388.40;;;-1.10
65290;BMP180;51893;59.754;10.110;2023-03-03T01:40:51;102392.60;;;-1.20
65290;BMP180;51893;59.754;10.110;2023-03-03T01:43:19;102390.20;;;-1.20
65290;BMP180;51893;59.754;10.110;2023-03-03T01:48:30;102384.00;;;-1.40
65290;BMP180;51893;59.754;10.110;2023-03-03T01:51:19;102389.60;;;-1.44
65290;BMP180;51893;59.754;10.110;2023-03-03T01:53:54;102375.40;;;-1.50
65290;BMP180;51893;59.754;10.110;2023-03-03T01:56:23;102382.80;;;-1.60
65290;BMP180;51893;59.754;10.110;2023-03-03T01:59:04;102374.80;;;-1.60
65290;BMP180;51893;59.754;10.110;2023-03-03T02:01:34;102365.80;;;-1.60
65290;BMP180;51893;59.754;10.110;2023-03-03T02:04:02;102365.00;;;-1.60
65290;BMP180;51893;59.754;10.110;2023-03-03T02:06:37;102361.00;;;-1.60
65290;BMP180;51893;59.754;10.110;2023-03-03T02:09:11;102357.60;;;-1.50
65290;BMP180;51893;59.754;10.110;2023-03-03T02:11:44;102348.00;;;-1.46
65290;BMP180;51893;59.754;10.110;2023-03-03T02:14:13;102350.40;;;-1.48
65290;BMP180;51893;59.754;10.110;2023-03-03T02:16:41;102354.60;;;-1.50
65290;BMP180;51893;59.754;10.110;2023-03-03T02:19:20;102350.20;;;-1.50
65290;BMP180;51893;59.754;10.110;2023-03-03T02:21:51;102349.80;;;-1.44
65290;BMP180;51893;59.754;10.110;2023-03-03T02:24:26;102345.40;;;-1.40
65290;BMP180;51893;59.754;10.110;2023-03-03T02:26:55;102341.20;;;-1.40
65290;BMP180;51893;59.754;10.110;2023-03-03T02:29:23;102342.20;;;-1.40
65290;BMP180;51893;59.754;10.110;2023-03-03T02:31:52;102342.20;;;-1.40
65290;BMP180;51893;59.754;10.110;2023-03-03T02:34:20;102343.40;;;-1.40
65290;BMP180;51893;59.754;10.110;2023-03-03T02:36:47;102343.00;;;-1.40
65290;BMP180;51893;59.754;10.110;2023-03-03T02:39:23;102341.60;;;-1.40
65290;BMP180;51893;59.754;10.110;2023-03-03T02:44:31;102347.60;;;-1.40
65290;BMP180;51893;59.754;10.110;2023-03-03T02:46:59;102349.80;;;-1.40
65290;BMP180;51893;59.754;10.110;2023-03-03T02:49:31;102343.80;;;-1.40
65290;BMP180;51893;59.754;10.110;2023-03-03T02:52:01;102335.60;;;-1.38
65290;BMP180;51893;59.754;10.110;2023-03-03T02:54:30;102335.60;;;-1.40
65290;BMP180;51893;59.754;10.110;2023-03-03T02:56:59;102337.20;;;-1.40
65290;BMP180;51893;59.754;10.110;2023-03-03T02:59:27;102330.80;;;-1.40
65290;BMP180;51893;59.754;10.110;2023-03-03T03:01:56;102311.20;;;-1.48
65290;BMP180;51893;59.754;10.110;2023-03-03T03:04:25;102315.80;;;-1.50
65290;BMP180;51893;59.754;10.110;2023-03-03T03:06:54;102312.80;;;-1.50
65290;BMP180;51893;59.754;10.110;2023-03-03T03:09:23;102309.00;;;-1.50
65290;BMP180;51893;59.754;10.110;2023-03-03T03:11:52;102308.40;;;-1.50
65290;BMP180;51893;59.754;10.110;2023-03-03T03:14:20;102315.80;;;-1.50
65290;BMP180;51893;59.754;10.110;2023-03-03T03:16:48;102313.80;;;-1.50
65290;BMP180;51893;59.754;10.110;2023-03-03T03:19:16;102306.20;;;-1.50
65290;BMP180;51893;59.754;10.110;2023-03-03T03:21:44;102299.20;;;-1.56
65290;BMP180;51893;59.754;10.110;2023-03-03T03:24:11;102293.60;;;-1.60
65290;BMP180;51893;59.754;10.110;2023-03-03T03:26:40;102302.20;;;-1.60
65290;BMP180;51893;59.754;10.110;2023-03-03T03:29:08;102293.20;;;-1.60
65290;BMP180;51893;59.754;10.110;2023-03-03T03:31:37;102294.20;;;-1.54
65290;BMP180;51893;59.754;10.110;2023-03-03T03:34:05;102288.60;;;-1.50
65290;BMP180;51893;59.754;10.110;2023-03-03T03:36:34;102282.40;;;-1.50
65290;BMP180;51893;59.754;10.110;2023-03-03T03:39:02;102276.80;;;-1.50
65290;BMP180;51893;59.754;10.110;2023-03-03T03:41:33;102268.00;;;-1.50
65290;BMP180;51893;59.754;10.110;2023-03-03T03:44:01;102265.60;;;-1.52
65290;BMP180;51893;59.754;10.110;2023-03-03T03:46:29;102263.80;;;-1.58
65290;BMP180;51893;59.754;10.110;2023-03-03T03:48:56;102259.80;;;-1.60
65290;BMP180;51893;59.754;10.110;2023-03-03T03:51:24;102262.80;;;-1.70
65290;BMP180;51893;59.754;10.110;2023-03-03T03:53:52;102265.80;;;-1.74
65290;BMP180;51893;59.754;10.110;2023-03-03T03:56:20;102257.00;;;-1.80
65290;BMP180;51893;59.754;10.110;2023-03-03T03:58:47;102248.00;;;-1.80
65290;BMP180;51893;59.754;10.110;2023-03-03T04:01:15;102246.20;;;-1.80
65290;BMP180;51893;59.754;10.110;2023-03-03T04:03:43;102253.00;;;-1.88
65290;BMP180;51893;59.754;10.110;2023-03-03T04:06:11;102260.20;;;-1.92
65290;BMP180;51893;59.754;10.110;2023-03-03T04:08:39;102250.20;;;-1.90
65290;BMP180;51893;59.754;10.110;2023-03-03T04:11:08;102249.20;;;-1.98
65290;BMP180;51893;59.754;10.110;2023-03-03T04:13:36;102246.80;;;-1.90
65290;BMP180;51893;59.754;10.110;2023-03-03T04:16:05;102239.80;;;-1.90
65290;BMP180;51893;59.754;10.110;2023-03-03T04:18:34;102229.20;;;-1.90
65290;BMP180;51893;59.754;10.110;2023-03-03T04:21:04;102228.60;;;-1.94
65290;BMP180;51893;59.754;10.110;2023-03-03T04:23:32;102228.00;;;-1.90
65290;BMP180;51893;59.754;10.110;2023-03-03T04:26:01;102224.20;;;-1.88
65290;BMP180;51893;59.754;10.110;2023-03-03T04:28:29;102215.40;;;-1.80
65290;BMP180;51893;59.754;10.110;2023-03-03T04:30:58;102223.40;;;-1.82
65290;BMP180;51893;59.754;10.110;2023-03-03T04:33:26;102230.20;;;-1.90
65290;BMP180;51893;59.754;10.110;2023-03-03T04:35:54;102231.00;;;-2.00
65290;BMP180;51893;59.754;10.110;2023-03-03T04:38:22;102226.20;;;-2.00
65290;BMP180;51893;59.754;10.110;2023-03-03T04:40:49;102220.20;;;-2.00
65290;BMP180;51893;59.754;10.110;2023-03-03T04:43:17;102216.20;;;-1.90
65290;BMP180;51893;59.754;10.110;2023-03-03T04:45:45;102213.80;;;-1.90
65290;BMP180;51893;59.754;10.110;2023-03-03T04:48:14;102215.60;;;-1.80
65290;BMP180;51893;59.754;10.110;2023-03-03T04:50:42;102205.20;;;-1.70
65290;BMP180;51893;59.754;10.110;2023-03-03T04:53:10;102198.40;;;-1.60
65290;BMP180;51893;59.754;10.110;2023-03-03T04:55:38;102196.00;;;-1.60
65290;BMP180;51893;59.754;10.110;2023-03-03T04:58:07;102199.20;;;-1.60
65290;BMP180;51893;59.754;10.110;2023-03-03T05:00:37;102198.60;;;-1.70
65290;BMP180;51893;59.754;10.110;2023-03-03T05:03:05;102195.80;;;-1.70
65290;BMP180;51893;59.754;10.110;2023-03-03T05:05:33;102185.20;;;-1.70
65290;BMP180;51893;59.754;10.110;2023-03-03T05:08:01;102178.20;;;-1.70
65290;BMP180;51893;59.754;10.110;2023-03-03T05:10:29;102180.20;;;-1.70
65290;BMP180;51893;59.754;10.110;2023-03-03T05:12:58;102177.60;;;-1.70
65290;BMP180;51893;59.754;10.110;2023-03-03T05:15:25;102177.80;;;-1.70
65290;BMP180;51893;59.754;10.110;2023-03-03T05:17:53;102179.60;;;-1.70
65290;BMP180;51893;59.754;10.110;2023-03-03T05:20:23;102173.20;;;-1.70
65290;BMP180;51893;59.754;10.110;2023-03-03T05:22:54;102165.60;;;-1.70
65290;BMP180;51893;59.754;10.110;2023-03-03T05:25:21;102167.00;;;-1.70
65290;BMP180;51893;59.754;10.110;2023-03-03T05:27:49;102166.20;;;-1.70
65290;BMP180;51893;59.754;10.110;2023-03-03T05:30:17;102168.60;;;-1.70
65290;BMP180;51893;59.754;10.110;2023-03-03T05:32:45;102159.60;;;-1.70
65290;BMP180;51893;59.754;10.110;2023-03-03T05:35:15;102153.40;;;-1.76
65290;BMP180;51893;59.754;10.110;2023-03-03T05:37:43;102142.60;;;-1.88
65290;BMP180;51893;59.754;10.110;2023-03-03T05:40:14;102134.60;;;-1.90
65290;BMP180;51893;59.754;10.110;2023-03-03T05:42:42;102130.60;;;-1.90
65290;BMP180;51893;59.754;10.110;2023-03-03T05:45:11;102123.00;;;-1.90
65290;BMP180;51893;59.754;10.110;2023-03-03T05:47:39;102115.80;;;-1.98
65290;BMP180;51893;59.754;10.110;2023-03-03T05:50:08;102113.00;;;-2.00
65290;BMP180;51893;59.754;10.110;2023-03-03T05:52:36;102113.60;;;-2.00
65290;BMP180;51893;59.754;10.110;2023-03-03T05:55:05;102104.80;;;-2.00
65290;BMP180;51893;59.754;10.110;2023-03-03T05:57:33;102104.40;;;-2.00
65290;BMP180;51893;59.754;10.110;2023-03-03T06:00:04;102102.60;;;-2.00
65290;BMP180;51893;59.754;10.110;2023-03-03T06:02:33;102093.60;;;-2.08
65290;BMP180;51893;59.754;10.110;2023-03-03T06:05:01;102087.60;;;-2.00
65290;BMP180;51893;59.754;10.110;2023-03-03T06:07:29;102074.00;;;-2.00
65290;BMP180;51893;59.754;10.110;2023-03-03T06:09:57;102068.20;;;-2.00
65290;BMP180;51893;59.754;10.110;2023-03-03T06:12:25;102070.20;;;-2.00
65290;BMP180;51893;59.754;10.110;2023-03-03T06:14:52;102070.40;;;-2.00
65290;BMP180;51893;59.754;10.110;2023-03-03T06:17:20;102070.60;;;-2.00
65290;BMP180;51893;59.754;10.110;2023-03-03T06:19:48;102068.60;;;-2.00
65290;BMP180;51893;59.754;10.110;2023-03-03T06:22:16;102078.00;;;-2.06
65290;BMP180;51893;59.754;10.110;2023-03-03T06:24:46;102068.00;;;-2.10
65290;BMP180;51893;59.754;10.110;2023-03-03T06:27:14;102063.20;;;-2.10
65290;BMP180;51893;59.754;10.110;2023-03-03T06:29:42;102061.20;;;-2.10
65290;BMP180;51893;59.754;10.110;2023-03-03T06:32:10;102047.40;;;-2.10
65290;BMP180;51893;59.754;10.110;2023-03-03T06:34:38;102043.60;;;-2.10
65290;BMP180;51893;59.754;10.110;2023-03-03T06:37:08;102036.80;;;-2.10
65290;BMP180;51893;59.754;10.110;2023-03-03T06:39:36;102036.20;;;-2.10
65290;BMP180;51893;59.754;10.110;2023-03-03T06:42:04;102038.40;;;-2.08
65290;BMP180;51893;59.754;10.110;2023-03-03T06:44:35;102034.60;;;-2.10
65290;BMP180;51893;59.754;10.110;2023-03-03T06:47:03;102030.20;;;-2.10
65290;BMP180;51893;59.754;10.110;2023-03-03T06:49:32;102026.80;;;-2.16
65290;BMP180;51893;59.754;10.110;2023-03-03T06:52:09;102026.00;;;-2.20
65290;BMP180;51893;59.754;10.110;2023-03-03T06:54:38;102018.60;;;-2.16
65290;BMP180;51893;59.754;10.110;2023-03-03T06:57:21;102014.80;;;-2.10
65290;BMP180;51893;59.754;10.110;2023-03-03T06:59:52;102010.00;;;-2.04
65290;BMP180;51893;59.754;10.110;2023-03-03T07:02:21;102004.00;;;-2.00
65290;BMP180;51893;59.754;10.110;2023-03-03T07:04:51;102004.80;;;-1.90
65290;BMP180;51893;59.754;10.110;2023-03-03T07:07:22;101999.00;;;-1.90
65290;BMP180;51893;59.754;10.110;2023-03-03T07:09:53;101997.00;;;-2.00
65290;BMP180;51893;59.754;10.110;2023-03-03T07:12:25;101998.60;;;-2.00
65290;BMP180;51893;59.754;10.110;2023-03-03T07:15:12;102002.00;;;-2.00
65290;BMP180;51893;59.754;10.110;2023-03-03T07:17:44;102001.00;;;-2.00
65290;BMP180;51893;59.754;10.110;2023-03-03T07:20:34;102003.00;;;-2.04
65290;BMP180;51893;59.754;10.110;2023-03-03T07:23:24;101996.00;;;-2.02
65290;BMP180;51893;59.754;10.110;2023-03-03T07:25:54;101988.00;;;-2.10
65290;BMP180;51893;59.754;10.110;2023-03-03T07:28:28;101990.80;;;-2.10
65290;BMP180;51893;59.754;10.110;2023-03-03T07:30:57;101977.60;;;-2.10
65290;BMP180;51893;59.754;10.110;2023-03-03T07:33:33;101980.80;;;-2.00
65290;BMP180;51893;59.754;10.110;2023-03-03T07:36:03;101982.20;;;-1.98
65290;BMP180;51893;59.754;10.110;2023-03-03T07:38:37;101978.20;;;-1.90
65290;BMP180;51893;59.754;10.110;2023-03-03T07:41:18;101981.20;;;-1.90
65290;BMP180;51893;59.754;10.110;2023-03-03T07:44:25;101980.20;;;-1.80
65290;BMP180;51893;59.754;10.110;2023-03-03T07:46:54;101980.20;;;-1.76
65290;BMP180;51893;59.754;10.110;2023-03-03T07:49:34;101980.20;;;-1.70
65290;BMP180;51893;59.754;10.110;2023-03-03T07:52:38;101973.00;;;-1.60
65290;BMP180;51893;59.754;10.110;2023-03-03T07:57:50;101977.80;;;-1.50
65290;BMP180;51893;59.754;10.110;2023-03-03T08:02:56;101967.00;;;-1.50
65290;BMP180;51893;59.754;10.110;2023-03-03T08:05:39;101969.00;;;-1.60
65290;BMP180;51893;59.754;10.110;2023-03-03T08:08:38;101963.80;;;-1.60
65290;BMP180;51893;59.754;10.110;2023-03-03T08:11:10;101952.40;;;-1.50
65290;BMP180;51893;59.754;10.110;2023-03-03T08:13:40;101949.80;;;-1.40
65290;BMP180;51893;59.754;10.110;2023-03-03T08:18:43;101941.20;;;-1.30
65290;BMP180;51893;59.754;10.110;2023-03-03T08:21:25;101934.80;;;-1.30
65290;BMP180;51893;59.754;10.110;2023-03-03T08:23:53;101926.20;;;-1.20
65290;BMP180;51893;59.754;10.110;2023-03-03T08:26:23;101920.80;;;-1.10
65290;BMP180;51893;59.754;10.110;2023-03-03T08:28:52;101918.80;;;-1.10
65290;BMP180;51893;59.754;10.110;2023-03-03T08:31:22;101912.60;;;-1.02
65290;BMP180;51893;59.754;10.110;2023-03-03T08:34:08;101914.20;;;-0.96
65290;BMP180;51893;59.754;10.110;2023-03-03T08:36:36;101909.20;;;-0.88
65290;BMP180;51893;59.754;10.110;2023-03-03T08:39:05;101906.20;;;-0.80
65290;BMP180;51893;59.754;10.110;2023-03-03T08:41:34;101908.20;;;-0.82
65290;BMP180;51893;59.754;10.110;2023-03-03T08:44:02;101910.40;;;-0.80
65290;BMP180;51893;59.754;10.110;2023-03-03T08:46:30;101898.40;;;-0.80
65290;BMP180;51893;59.754;10.110;2023-03-03T08:49:00;101896.20;;;-0.80
65290;BMP180;51893;59.754;10.110;2023-03-03T08:51:29;101895.80;;;-0.80
65290;BMP180;51893;59.754;10.110;2023-03-03T08:53:57;101888.80;;;-0.80
65290;BMP180;51893;59.754;10.110;2023-03-03T08:56:26;101891.20;;;-0.70
65290;BMP180;51893;59.754;10.110;2023-03-03T08:58:55;101888.60;;;-0.70
65290;BMP180;51893;59.754;10.110;2023-03-03T09:01:31;101877.20;;;-0.60
65290;BMP180;51893;59.754;10.110;2023-03-03T09:04:02;101871.60;;;-0.54
65290;BMP180;51893;59.754;10.110;2023-03-03T09:06:30;101864.20;;;-0.50
65290;BMP180;51893;59.754;10.110;2023-03-03T09:08:58;101861.80;;;-0.40
65290;BMP180;51893;59.754;10.110;2023-03-03T09:11:27;101854.40;;;-0.30
65290;BMP180;51893;59.754;10.110;2023-03-03T09:14:16;101845.60;;;-0.20
65290;BMP180;51893;59.754;10.110;2023-03-03T09:16:49;101842.20;;;-0.10
65290;BMP180;51893;59.754;10.110;2023-03-03T09:19:29;101850.20;;;-0.10
65290;BMP180;51893;59.754;10.110;2023-03-03T09:22:10;101839.20;;;0.00
65290;BMP180;51893;59.754;10.110;2023-03-03T09:24:41;101838.40;;;0.10
65290;BMP180;51893;59.754;10.110;2023-03-03T09:27:22;101827.80;;;0.10
65290;BMP180;51893;59.754;10.110;2023-03-03T09:29:54;101817.60;;;0.20
65290;BMP180;51893;59.754;10.110;2023-03-03T09:32:34;101816.00;;;0.20
65290;BMP180;51893;59.754;10.110;2023-03-03T09:35:33;101817.40;;;0.30
65290;BMP180;51893;59.754;10.110;2023-03-03T09:38:25;101819.00;;;0.40
65290;BMP180;51893;59.754;10.110;2023-03-03T09:41:18;101817.00;;;0.40
65290;BMP180;51893;59.754;10.110;2023-03-03T09:46:58;101816.00;;;0.50
65290;BMP180;51893;59.754;10.110;2023-03-03T09:53:24;101822.40;;;0.60
65290;BMP180;51893;59.754;10.110;2023-03-03T09:56:08;101819.00;;;0.70
65290;BMP180;51893;59.754;10.110;2023-03-03T10:10:23;101815.20;;;1.16
65290;BMP180;51893;59.754;10.110;2023-03-03T10:19:00;101797.80;;;1.30
65290;BMP180;51893;59.754;10.110;2023-03-03T10:21:35;101786.60;;;1.40
65290;BMP180;51893;59.754;10.110;2023-03-03T10:42:03;101759.00;;;1.90
65290;BMP180;51893;59.754;10.110;2023-03-03T10:53:20;101744.00;;;2.40
65290;BMP180;51893;59.754;10.110;2023-03-03T11:01:51;101724.60;;;3.66
65290;BMP180;51893;59.754;10.110;2023-03-03T11:07:55;101712.80;;;4.70
65290;BMP180;51893;59.754;10.110;2023-03-03T11:13:25;101719.20;;;5.40
65290;BMP180;51893;59.754;10.110;2023-03-03T11:19:06;101702.20;;;5.50
65290;BMP180;51893;59.754;10.110;2023-03-03T11:21:45;101701.60;;;5.62
65290;BMP180;51893;59.754;10.110;2023-03-03T11:24:38;101689.20;;;5.80
65290;BMP180;51893;59.754;10.110;2023-03-03T11:27:36;101686.00;;;5.90
65290;BMP180;51893;59.754;10.110;2023-03-03T11:40:48;101697.40;;;6.40
65290;BMP180;51893;59.754;10.110;2023-03-03T11:43:31;101690.80;;;6.40
65290;BMP180;51893;59.754;10.110;2023-03-03T11:46:14;101701.00;;;6.50
65290;BMP180;51893;59.754;10.110;2023-03-03T11:52:21;101689.60;;;6.60
65290;BMP180;51893;59.754;10.110;2023-03-03T12:09:10;101639.20;;;6.80
65290;BMP180;51893;59.754;10.110;2023-03-03T12:11:46;101631.40;;;6.90
65290;BMP180;51893;59.754;10.110;2023-03-03T12:19:46;101628.40;;;6.90
65290;BMP180;51893;59.754;10.110;2023-03-03T12:22:34;101622.80;;;6.98
65290;BMP180;51893;59.754;10.110;2023-03-03T12:25:22;101621.00;;;7.00
65290;BMP180;51893;59.754;10.110;2023-03-03T12:28:17;101617.40;;;7.10
65290;BMP180;51893;59.754;10.110;2023-03-03T12:46:03;101574.20;;;7.20
65290;BMP180;51893;59.754;10.110;2023-03-03T12:48:40;101580.80;;;7.20
65290;BMP180;51893;59.754;10.110;2023-03-03T12:51:33;101569.80;;;7.20
65290;BMP180;51893;59.754;10.110;2023-03-03T12:59:39;101561.20;;;7.10
65290;BMP180;51893;59.754;10.110;2023-03-03T13:05:18;101558.00;;;7.16
65290;BMP180;51893;59.754;10.110;2023-03-03T13:08:15;101548.80;;;7.20
65290;BMP180;51893;59.754;10.110;2023-03-03T13:19:55;101515.80;;;7.20
65290;BMP180;51893;59.754;10.110;2023-03-03T13:22:32;101512.00;;;7.20
65290;BMP180;51893;59.754;10.110;2023-03-03T13:25:30;101511.40;;;7.20
65290;BMP180;51893;59.754;10.110;2023-03-03T13:28:09;101509.40;;;7.20
65290;BMP180;51893;59.754;10.110;2023-03-03T13:30:54;101503.80;;;7.20
65290;BMP180;51893;59.754;10.110;2023-03-03T13:33:33;101501.00;;;7.30
65290;BMP180;51893;59.754;10.110;2023-03-03T13:36:06;101493.80;;;7.40
65290;BMP180;51893;59.754;10.110;2023-03-03T13:38:40;101487.00;;;7.40
65290;BMP180;51893;59.754;10.110;2023-03-03T13:41:19;101478.60;;;7.50
65290;BMP180;51893;59.754;10.110;2023-03-03T13:44:11;101482.80;;;7.50
65290;BMP180;51893;59.754;10.110;2023-03-03T13:47:07;101472.20;;;7.60
65290;BMP180;51893;59.754;10.110;2023-03-03T13:50:03;101466.60;;;7.60
65290;BMP180;51893;59.754;10.110;2023-03-03T13:52:46;101454.60;;;7.70
65290;BMP180;51893;59.754;10.110;2023-03-03T13:58:13;101432.20;;;7.78
65290;BMP180;51893;59.754;10.110;2023-03-03T14:00:56;101423.80;;;7.78
65290;BMP180;51893;59.754;10.110;2023-03-03T14:06:22;101415.60;;;7.80
65290;BMP180;51893;59.754;10.110;2023-03-03T14:17:41;101409.40;;;7.90
65290;BMP180;51893;59.754;10.110;2023-03-03T14:20:21;101401.80;;;7.90
65290;BMP180;51893;59.754;10.110;2023-03-03T14:22:56;101401.20;;;7.90
65290;BMP180;51893;59.754;10.110;2023-03-03T14:25:24;101388.20;;;7.90
65290;BMP180;51893;59.754;10.110;2023-03-03T14:28:00;101377.20;;;7.90
65290;BMP180;51893;59.754;10.110;2023-03-03T14:30:38;101380.20;;;8.00
65290;BMP180;51893;59.754;10.110;2023-03-03T14:35:39;101369.00;;;8.00
65290;BMP180;51893;59.754;10.110;2023-03-03T14:40:37;101352.00;;;8.00
65290;BMP180;51893;59.754;10.110;2023-03-03T14:43:37;101348.20;;;8.08
65290;BMP180;51893;59.754;10.110;2023-03-03T14:46:30;101336.20;;;8.00
65290;BMP180;51893;59.754;10.110;2023-03-03T14:49:04;101332.20;;;8.00
65290;BMP180;51893;59.754;10.110;2023-03-03T14:51:47;101325.60;;;8.00
65290;BMP180;51893;59.754;10.110;2023-03-03T14:57:17;101311.60;;;8.00
65290;BMP180;51893;59.754;10.110;2023-03-03T14:59:57;101302.80;;;7.90
65290;BMP180;51893;59.754;10.110;2023-03-03T15:02:55;101294.00;;;7.90
65290;BMP180;51893;59.754;10.110;2023-03-03T15:05:23;101284.80;;;7.90
65290;BMP180;51893;59.754;10.110;2023-03-03T15:07:54;101283.80;;;7.90
65290;BMP180;51893;59.754;10.110;2023-03-03T15:18:28;101262.00;;;8.00
65290;BMP180;51893;59.754;10.110;2023-03-03T15:21:07;101259.80;;;8.00
65290;BMP180;51893;59.754;10.110;2023-03-03T15:23:52;101261.80;;;8.00
65290;BMP180;51893;59.754;10.110;2023-03-03T15:26:54;101264.40;;;8.00
65290;BMP180;51893;59.754;10.110;2023-03-03T15:34:57;101254.00;;;8.00
65290;BMP180;51893;59.754;10.110;2023-03-03T15:37:59;101253.60;;;8.00
65290;BMP180;51893;59.754;10.110;2023-03-03T15:49:03;101246.00;;;7.90
65290;BMP180;51893;59.754;10.110;2023-03-03T16:03:19;101230.60;;;7.60
65290;BMP180;51893;59.754;10.110;2023-03-03T16:11:39;101220.60;;;7.50
65290;BMP180;51893;59.754;10.110;2023-03-03T16:17:17;101215.80;;;7.40
65290;BMP180;51893;59.754;10.110;2023-03-03T16:31:34;101222.00;;;7.30
65290;BMP180;51893;59.754;10.110;2023-03-03T16:37:35;101222.00;;;7.08
65290;BMP180;51893;59.754;10.110;2023-03-03T16:40:22;101220.60;;;6.90
65290;BMP180;51893;59.754;10.110;2023-03-03T16:42:58;101222.60;;;6.80
65290;BMP180;51893;59.754;10.110;2023-03-03T16:45:34;101222.20;;;6.70
65290;BMP180;51893;59.754;10.110;2023-03-03T16:48:20;101219.20;;;6.60
65290;BMP180;51893;59.754;10.110;2023-03-03T16:53:53;101227.00;;;6.22
65290;BMP180;51893;59.754;10.110;2023-03-03T16:56:33;101225.20;;;6.20
65290;BMP180;51893;59.754;10.110;2023-03-03T16:59:34;101226.60;;;6.10
65290;BMP180;51893;59.754;10.110;2023-03-03T17:02:18;101228.60;;;6.00
65290;BMP180;51893;59.754;10.110;2023-03-03T17:05:05;101229.00;;;5.82
65290;BMP180;51893;59.754;10.110;2023-03-03T17:07:46;101225.60;;;5.70
65290;BMP180;51893;59.754;10.110;2023-03-03T17:10:26;101224.80;;;5.70
65290;BMP180;51893;59.754;10.110;2023-03-03T17:13:32;101226.20;;;5.80
65290;BMP180;51893;59.754;10.110;2023-03-03T17:19:33;101232.40;;;5.84
65290;BMP180;51893;59.754;10.110;2023-03-03T17:22:38;101231.20;;;5.90
65290;BMP180;51893;59.754;10.110;2023-03-03T17:25:20;101234.80;;;6.00
65290;BMP180;51893;59.754;10.110;2023-03-03T17:30:51;101244.00;;;5.84
65290;BMP180;51893;59.754;10.110;2023-03-03T17:45:06;101259.20;;;5.10
65290;BMP180;51893;59.754;10.110;2023-03-03T17:55:54;101268.40;;;4.70
65290;BMP180;51893;59.754;10.110;2023-03-03T18:01:23;101271.00;;;4.60
65290;BMP180;51893;59.754;10.110;2023-03-03T18:10:13;101279.80;;;4.40
65290;BMP180;51893;59.754;10.110;2023-03-03T18:12:58;101284.00;;;4.30
65290;BMP180;51893;59.754;10.110;2023-03-03T18:19:17;101292.80;;;4.28
65290;BMP180;51893;59.754;10.110;2023-03-03T18:22:41;101298.60;;;4.20
65290;BMP180;51893;59.754;10.110;2023-03-03T18:24:58;101292.00;;;4.12
65290;BMP180;51893;59.754;10.110;2023-03-03T18:27:35;101293.00;;;4.10
65290;BMP180;51893;59.754;10.110;2023-03-03T18:30:25;101294.00;;;4.10
65290;BMP180;51893;59.754;10.110;2023-03-03T18:33:06;101288.20;;;4.20
65290;BMP180;51893;59.754;10.110;2023-03-03T18:35:43;101291.80;;;4.20
65290;BMP180;51893;59.754;10.110;2023-03-03T18:41:01;101307.00;;;4.00
65290;BMP180;51893;59.754;10.110;2023-03-03T18:49:07;101317.80;;;3.90
65290;BMP180;51893;59.754;10.110;2023-03-03T18:54:21;101321.80;;;3.70
65290;BMP180;51893;59.754;10.110;2023-03-03T19:02:24;101326.40;;;3.50
65290;BMP180;51893;59.754;10.110;2023-03-03T19:05:17;101334.40;;;3.40
65290;BMP180;51893;59.754;10.110;2023-03-03T19:07:58;101335.00;;;3.30
65290;BMP180;51893;59.754;10.110;2023-03-03T19:10:59;101330.80;;;3.20
65290;BMP180;51893;59.754;10.110;2023-03-03T19:16:26;101330.60;;;3.10
65290;BMP180;51893;59.754;10.110;2023-03-03T19:18:59;101335.00;;;3.10